Time;durP1;ratioP1;P1;durP2;ratioP2;P2;SDS_P1;SDS_P2;PMS_P1;PMS_P2;Temp;Humidity;BMP_temperature;BMP_pressure;BME280_temperature;BME280_humidity;BME280_pressure;Samples;Min_cycle;Max_cycle;Signal;HPM_P1;HPM_P2
2022/06/04 00:00:00;;;;;;;11.73;9.25;;;16.50;99.90;;;;;;4200810;28;20095;-79
2022/06/04 00:02:02;;;;;;;10.70;9.38;;;16.50;99.90;;;;;;4191426;28;20107;-79
2022/06/04 00:04:04;;;;;;;9.68;8.77;;;16.40;99.90;;;;;;4197793;28;20951;-78
2022/06/04 00:06:06;;;;;;;7.78;7.07;;;16.40;99.90;;;;;;4194501;28;20062;-79
2022/06/04 00:08:09;;;;;;;7.95;7.30;;;16.40;99.90;;;;;;4200185;28;21115;-79
2022/06/04 00:17:17;;;;;;;7.55;6.82;;;16.40;99.90;;;;;;4185274;28;20176;-79
2022/06/04 00:19:19;;;;;;;8.02;7.22;;;16.50;99.90;;;;;;4198937;28;20053;-78
2022/06/04 00:21:23;;;;;;;9.20;8.25;;;16.50;99.90;;;;;;4205304;28;20115;-79
2022/06/04 00:23:26;;;;;;;8.70;7.90;;;16.50;99.90;;;;;;4191879;28;20058;-79
2022/06/04 00:25:28;;;;;;;7.60;6.90;;;16.50;99.90;;;;;;4200498;28;20922;-80
2022/06/04 00:27:30;;;;;;;8.23;7.53;;;16.50;99.90;;;;;;4195418;28;20164;-78
2022/06/04 00:29:32;;;;;;;10.30;9.25;;;16.50;99.90;;;;;;4198641;28;20052;-79
2022/06/04 00:31:36;;;;;;;9.48;8.45;;;16.50;99.90;;;;;;4198030;28;20120;-79
2022/06/04 00:33:39;;;;;;;13.30;10.20;;;16.50;99.90;;;;;;4205271;28;20060;-80
2022/06/04 00:35:40;;;;;;;12.07;9.57;;;16.40;99.90;;;;;;4202121;28;20045;-79
2022/06/04 00:37:42;;;;;;;9.68;8.73;;;16.40;99.90;;;;;;4200874;28;20054;-78
2022/06/04 00:39:45;;;;;;;9.13;8.20;;;16.40;99.90;;;;;;4204409;28;20057;-78
2022/06/04 00:42:05;;;;;;;7.72;7.15;;;16.40;99.90;;;;;;4200959;28;20060;-78
2022/06/04 00:44:10;;;;;;;9.82;8.82;;;16.30;99.90;;;;;;4203066;28;20053;-78
2022/06/04 00:46:47;;;;;;;11.32;8.50;;;16.20;99.90;;;;;;4195358;28;20060;-78
2022/06/04 00:48:49;;;;;;;10.63;7.55;;;16.20;99.90;;;;;;4193462;28;20181;-79
2022/06/04 00:50:50;;;;;;;9.98;7.75;;;16.20;99.90;;;;;;4197147;28;20057;-80
2022/06/04 00:52:54;;;;;;;9.77;7.63;;;16.10;99.90;;;;;;4188595;28;20941;-78
2022/06/04 00:54:57;;;;;;;8.95;8.25;;;16.20;99.90;;;;;;4200885;28;20772;-79
2022/06/04 00:57:18;;;;;;;10.48;8.95;;;16.20;99.90;;;;;;4204447;28;20061;-79
2022/06/04 00:59:38;;;;;;;9.38;8.02;;;16.20;99.90;;;;;;4195088;28;20853;-78
2022/06/04 01:02:12;;;;;;;8.85;8.25;;;16.10;99.90;;;;;;4201790;28;20121;-79
2022/06/04 01:04:48;;;;;;;10.85;9.85;;;16.10;99.90;;;;;;4195378;28;20064;-80
2022/06/04 01:06:58;;;;;;;8.70;7.90;;;16.10;99.90;;;;;;4191798;28;20049;-79
2022/06/04 01:09:44;;;;;;;8.75;7.88;;;16.20;99.90;;;;;;4189129;28;20084;-79
2022/06/04 01:12:09;;;;;;;8.68;7.95;;;16.10;99.90;;;;;;4201729;28;20053;-79
2022/06/04 01:14:55;;;;;;;8.98;8.18;;;16.20;99.90;;;;;;4202493;28;20167;-79
2022/06/04 01:17:03;;;;;;;11.98;8.70;;;16.20;99.90;;;;;;4139796;28;20754;-79
2022/06/04 01:19:27;;;;;;;8.43;7.72;;;16.10;99.90;;;;;;4187602;28;20049;-79
2022/06/04 01:22:02;;;;;;;11.43;8.75;;;16.10;99.90;;;;;;4200684;28;20112;-79
2022/06/04 01:24:03;;;;;;;9.15;8.20;;;16.10;99.90;;;;;;4188475;28;20067;-79
2022/06/04 01:26:38;;;;;;;9.07;8.27;;;16.20;99.90;;;;;;4188283;28;20104;-79
2022/06/04 01:28:49;;;;;;;10.18;9.27;;;16.20;99.90;;;;;;4191162;28;20061;-80
2022/06/04 01:30:57;;;;;;;9.38;8.48;;;16.30;99.90;;;;;;4199862;28;20172;-79
2022/06/04 01:33:02;;;;;;;9.95;9.15;;;16.30;99.90;;;;;;4208432;28;20227;-79
2022/06/04 01:35:21;;;;;;;11.90;9.75;;;16.40;99.90;;;;;;4221376;28;20088;-79
2022/06/04 01:37:30;;;;;;;9.68;8.40;;;16.40;99.90;;;;;;4199576;28;20155;-78
2022/06/04 01:42:02;;;;;;;9.95;9.05;;;16.40;99.90;;;;;;4198833;28;20047;-79
2022/06/04 01:44:19;;;;;;;11.05;9.95;;;16.40;99.90;;;;;;4216136;28;20125;-79
2022/06/04 01:46:21;;;;;;;10.40;9.43;;;16.40;99.90;;;;;;4205472;28;20042;-79
2022/06/04 01:48:24;;;;;;;10.35;9.48;;;16.30;99.90;;;;;;4203316;28;20056;-79
2022/06/04 01:50:32;;;;;;;9.52;8.63;;;16.30;99.90;;;;;;4194158;28;20910;-78
2022/06/04 01:52:37;;;;;;;10.13;9.23;;;16.30;99.90;;;;;;4197884;28;20060;-79
2022/06/04 01:54:47;;;;;;;10.45;9.40;;;16.30;99.90;;;;;;4195352;28;20064;-79
2022/06/04 01:56:56;;;;;;;9.73;8.75;;;16.30;99.90;;;;;;4202485;28;20898;-79
2022/06/04 01:59:05;;;;;;;10.65;9.65;;;16.20;99.90;;;;;;4202823;28;20295;-78
2022/06/04 02:01:14;;;;;;;8.57;7.68;;;16.20;99.90;;;;;;4202040;28;20179;-78
2022/06/04 02:03:22;;;;;;;9.63;8.60;;;16.10;99.90;;;;;;4213692;28;20060;-78
2022/06/04 02:05:30;;;;;;;10.23;8.52;;;16.10;99.90;;;;;;4216800;28;20131;-78
2022/06/04 02:07:36;;;;;;;8.77;7.97;;;16.00;99.90;;;;;;4193118;28;20060;-78
2022/06/04 02:09:45;;;;;;;9.68;8.75;;;16.10;99.90;;;;;;4200628;28;20057;-79
2022/06/04 02:11:53;;;;;;;8.60;7.88;;;16.10;99.90;;;;;;4196811;28;20060;-78
2022/06/04 02:13:58;;;;;;;9.40;8.60;;;16.00;99.90;;;;;;4186350;28;20061;-79
2022/06/04 02:16:06;;;;;;;9.43;8.52;;;16.00;99.90;;;;;;4212230;28;20061;-78
2022/06/04 02:18:10;;;;;;;9.05;8.15;;;15.90;99.90;;;;;;4196811;28;20150;-78
2022/06/04 02:20:13;;;;;;;8.52;7.82;;;15.90;99.90;;;;;;4201825;28;20100;-79
2022/06/04 02:22:15;;;;;;;9.20;8.30;;;15.80;99.90;;;;;;4197386;28;20179;-79
2022/06/04 02:24:18;;;;;;;9.98;8.98;;;15.80;99.90;;;;;;4192473;28;20123;-78
2022/06/04 02:26:20;;;;;;;9.93;9.02;;;15.80;99.90;;;;;;4202320;28;20057;-78
2022/06/04 02:28:22;;;;;;;10.05;8.75;;;15.80;99.90;;;;;;4208993;28;20049;-79
2022/06/04 02:30:42;;;;;;;9.18;8.30;;;15.80;99.90;;;;;;4210107;28;20055;-78
2022/06/04 02:33:12;;;;;;;9.45;8.65;;;15.70;99.90;;;;;;4202591;28;20053;-79
2022/06/04 02:35:41;;;;;;;8.93;8.13;;;15.70;99.90;;;;;;4199328;28;20859;-79
2022/06/04 02:38:01;;;;;;;9.30;8.27;;;15.70;99.90;;;;;;4199224;28;20156;-79
2022/06/04 02:40:28;;;;;;;9.10;8.20;;;15.80;99.90;;;;;;4188220;28;20049;-79
2022/06/04 02:42:37;;;;;;;8.73;8.02;;;15.80;99.90;;;;;;4199295;28;20063;-78
2022/06/04 02:44:46;;;;;;;8.60;7.95;;;15.80;99.90;;;;;;4204483;28;20057;-79
2022/06/04 02:47:03;;;;;;;9.23;8.32;;;15.80;99.90;;;;;;4200984;28;20867;-78
2022/06/04 02:49:27;;;;;;;10.45;8.15;;;15.80;99.90;;;;;;4197269;28;20084;-79
2022/06/04 02:51:50;;;;;;;8.70;7.82;;;15.70;99.90;;;;;;4187438;28;20061;-79
2022/06/04 02:53:54;;;;;;;10.18;9.13;;;15.60;99.90;;;;;;4216314;28;20923;-78
2022/06/04 02:56:04;;;;;;;9.77;7.63;;;15.60;99.90;;;;;;4202585;28;20067;-78
2022/06/04 02:58:12;;;;;;;11.05;8.18;;;15.50;99.90;;;;;;4194182;28;20065;-79
2022/06/04 03:00:22;;;;;;;8.00;7.28;;;15.50;99.90;;;;;;4198675;28;20065;-78
2022/06/04 03:02:28;;;;;;;6.75;6.25;;;15.50;99.90;;;;;;4212774;28;20053;-78
2022/06/04 03:04:48;;;;;;;8.57;7.78;;;15.50;99.90;;;;;;4203886;28;20195;-79
2022/06/04 03:06:50;;;;;;;8.73;7.95;;;15.50;99.90;;;;;;4195371;28;20130;-78
2022/06/04 03:08:53;;;;;;;9.10;8.30;;;15.60;99.90;;;;;;4198176;28;20122;-78
2022/06/04 03:10:55;;;;;;;8.30;7.70;;;15.40;99.90;;;;;;4196469;28;20095;-79
2022/06/04 03:12:57;;;;;;;9.52;8.73;;;15.40;99.90;;;;;;4188772;28;20064;-79
2022/06/04 03:14:58;;;;;;;8.85;8.15;;;15.40;99.90;;;;;;4195115;28;20057;-78
2022/06/04 03:17:00;;;;;;;8.15;7.22;;;15.40;99.90;;;;;;4200056;28;20069;-78
2022/06/04 03:19:07;;;;;;;8.18;7.22;;;15.40;99.90;;;;;;4202007;28;20056;-79
2022/06/04 03:21:10;;;;;;;11.32;7.78;;;15.40;99.90;;;;;;4198463;28;20053;-78
2022/06/04 03:23:12;;;;;;;8.38;7.50;;;15.40;99.90;;;;;;4199529;28;20085;-78
2022/06/04 03:25:14;;;;;;;8.07;7.38;;;15.50;99.90;;;;;;4201399;28;20095;-78
2022/06/04 03:27:15;;;;;;;8.15;7.38;;;15.50;99.90;;;;;;4206141;28;20052;-78
2022/06/04 03:29:17;;;;;;;7.47;6.38;;;15.50;99.90;;;;;;4198251;28;20103;-79
2022/06/04 03:31:19;;;;;;;12.38;7.55;;;15.60;99.90;;;;;;4201604;28;20061;-79
2022/06/04 03:33:21;;;;;;;7.32;6.72;;;15.60;99.90;;;;;;4203167;28;20776;-79
2022/06/04 03:35:24;;;;;;;7.50;6.90;;;15.50;99.90;;;;;;4202040;28;20049;-78
2022/06/04 03:37:25;;;;;;;8.35;7.55;;;15.50;99.90;;;;;;4191705;28;20045;-78
2022/06/04 03:39:29;;;;;;;12.43;7.50;;;15.40;99.90;;;;;;4201097;28;20115;-78
2022/06/04 03:41:31;;;;;;;7.40;6.80;;;15.40;99.90;;;;;;4217472;28;20045;-79
2022/06/04 03:43:33;;;;;;;7.70;7.03;;;15.40;99.90;;;;;;4202727;28;20083;-79
2022/06/04 03:45:34;;;;;;;7.80;6.90;;;15.40;99.90;;;;;;4203037;28;21006;-79
2022/06/04 03:47:36;;;;;;;7.60;6.95;;;15.50;99.90;;;;;;4209705;28;20899;-79
2022/06/04 03:49:38;;;;;;;7.55;6.93;;;15.50;99.90;;;;;;4192293;28;20844;-79
2022/06/04 03:51:41;;;;;;;7.00;6.35;;;15.60;99.90;;;;;;4202874;28;20163;-79
2022/06/04 03:53:43;;;;;;;7.10;6.50;;;15.70;99.90;;;;;;4201647;28;20966;-82
2022/06/04 03:55:44;;;;;;;6.88;6.28;;;15.80;99.90;;;;;;4187252;28;21211;-79
2022/06/04 03:57:48;;;;;;;6.75;6.15;;;15.90;99.90;;;;;;4187534;28;20104;-78
2022/06/04 03:59:51;;;;;;;6.75;6.28;;;16.00;99.90;;;;;;4200656;28;20053;-79
2022/06/04 04:01:53;;;;;;;7.00;6.40;;;16.10;99.90;;;;;;4200172;28;20057;-79
2022/06/04 04:03:56;;;;;;;8.15;5.82;;;16.20;99.90;;;;;;4189705;28;21019;-78
2022/06/04 04:05:58;;;;;;;6.70;6.05;;;16.20;99.90;;;;;;4200211;28;20061;-79
2022/06/04 04:08:02;;;;;;;9.25;7.30;;;16.20;99.90;;;;;;4193746;28;20060;-79
2022/06/04 04:10:05;;;;;;;6.18;5.78;;;16.20;99.90;;;;;;4185742;28;20057;-78
2022/06/04 04:12:08;;;;;;;7.25;6.53;;;16.20;99.90;;;;;;4195372;28;20096;-78
2022/06/04 04:14:16;;;;;;;6.30;5.80;;;16.30;99.90;;;;;;4195170;28;20063;-78
2022/06/04 04:16:19;;;;;;;6.28;5.50;;;16.20;99.90;;;;;;4197232;28;20060;-79
2022/06/04 04:18:21;;;;;;;6.53;6.03;;;16.20;99.90;;;;;;4196350;28;20045;-78
2022/06/04 04:20:27;;;;;;;6.00;5.43;;;16.20;99.90;;;;;;4204613;28;20124;-79
2022/06/04 04:22:28;;;;;;;6.47;5.93;;;16.20;99.90;;;;;;4211446;28;20053;-79
2022/06/04 04:24:30;;;;;;;6.80;6.20;;;16.20;99.90;;;;;;4192208;28;20057;-79
2022/06/04 04:26:32;;;;;;;5.85;5.47;;;16.20;99.90;;;;;;4203034;28;20107;-79
2022/06/04 04:28:34;;;;;;;5.65;5.13;;;16.20;99.90;;;;;;4205677;28;20072;-79
2022/06/04 04:30:37;;;;;;;6.68;5.45;;;16.30;99.90;;;;;;4200689;28;20056;-79
2022/06/04 04:32:39;;;;;;;7.03;6.28;;;16.40;99.90;;;;;;4203964;28;20053;-78
2022/06/04 04:34:41;;;;;;;6.97;6.40;;;16.50;99.90;;;;;;4200631;28;20056;-79
2022/06/04 04:36:45;;;;;;;6.65;6.20;;;16.50;99.90;;;;;;4192670;28;20062;-79
2022/06/04 04:38:47;;;;;;;5.97;5.60;;;16.60;99.90;;;;;;4193067;28;20095;-78
2022/06/04 04:40:49;;;;;;;6.43;5.97;;;16.70;99.90;;;;;;4193688;28;20063;-82
2022/06/04 04:42:51;;;;;;;6.13;5.72;;;16.90;99.90;;;;;;4202252;28;20100;-80
2022/06/04 04:44:53;;;;;;;6.30;5.80;;;17.00;99.90;;;;;;4193055;28;20160;-80
2022/06/04 04:46:54;;;;;;;6.50;6.07;;;17.20;99.90;;;;;;4201994;28;20053;-80
2022/06/04 04:48:56;;;;;;;6.38;5.85;;;17.40;99.90;;;;;;4183299;28;20124;-81
2022/06/04 04:50:59;;;;;;;5.88;5.32;;;17.60;99.90;;;;;;4193205;28;20071;-79
2022/06/04 04:53:04;;;;;;;5.07;4.68;;;17.70;99.90;;;;;;4202815;28;20033;-80
2022/06/04 04:55:06;;;;;;;5.38;4.88;;;17.80;99.90;;;;;;4197697;28;20268;-79
2022/06/04 04:57:08;;;;;;;5.35;4.95;;;17.90;99.90;;;;;;4203460;28;20099;-79
2022/06/04 04:59:10;;;;;;;5.47;5.07;;;17.90;99.90;;;;;;4199391;28;20065;-77
2022/06/04 05:01:25;;;;;;;5.03;4.63;;;17.90;99.90;;;;;;4195153;28;20068;-79
2022/06/04 05:03:26;;;;;;;5.68;5.18;;;17.90;99.90;;;;;;4185267;28;20089;-79
2022/06/04 05:05:28;;;;;;;4.78;4.38;;;18.00;99.90;;;;;;4191014;28;20064;-78
2022/06/04 05:07:31;;;;;;;5.28;4.88;;;17.90;99.90;;;;;;4189505;28;20819;-77
2022/06/04 05:09:33;;;;;;;5.55;5.05;;;18.00;99.90;;;;;;4186217;28;20092;-77
2022/06/04 05:11:35;;;;;;;4.35;4.05;;;18.00;99.90;;;;;;4196954;28;20080;-77
2022/06/04 05:13:37;;;;;;;4.75;4.10;;;18.10;99.90;;;;;;4184310;28;20060;-78
2022/06/04 05:15:39;;;;;;;3.88;3.55;;;18.20;99.90;;;;;;4192693;28;20061;-78
2022/06/04 05:17:41;;;;;;;4.45;3.55;;;18.30;99.90;;;;;;4195801;28;20080;-79
2022/06/04 05:19:43;;;;;;;4.65;4.25;;;18.40;99.90;;;;;;4200532;28;20065;-79
2022/06/04 05:21:47;;;;;;;4.10;3.70;;;18.40;99.90;;;;;;4189706;28;20156;-78
2022/06/04 05:23:50;;;;;;;4.18;3.03;;;18.50;99.90;;;;;;4199733;28;20045;-78
2022/06/04 05:25:52;;;;;;;3.25;3.05;;;18.50;99.90;;;;;;4202945;28;20077;-77
2022/06/04 05:27:53;;;;;;;3.40;3.20;;;18.40;99.90;;;;;;4195678;28;20067;-77
2022/06/04 05:29:56;;;;;;;3.25;3.03;;;18.40;99.90;;;;;;4185036;28;20057;-77
2022/06/04 05:31:58;;;;;;;3.20;2.97;;;18.40;99.90;;;;;;4190367;28;20080;-78
2022/06/04 05:34:00;;;;;;;2.97;2.75;;;18.40;99.90;;;;;;4199712;28;20148;-77
2022/06/04 05:36:03;;;;;;;3.50;3.30;;;18.30;99.90;;;;;;4200254;28;20811;-78
2022/06/04 05:38:05;;;;;;;7.45;3.50;;;18.30;99.90;;;;;;4189742;28;20061;-77
2022/06/04 05:40:07;;;;;;;3.33;3.03;;;18.40;99.90;;;;;;4200377;28;20160;-78
2022/06/04 05:42:10;;;;;;;3.55;3.25;;;18.40;99.90;;;;;;4177749;28;20048;-77
2022/06/04 05:44:12;;;;;;;3.90;3.50;;;18.40;99.90;;;;;;4208493;28;20061;-78
2022/06/04 05:46:15;;;;;;;4.28;3.95;;;18.30;99.90;;;;;;4198837;28;20067;-78
2022/06/04 05:48:17;;;;;;;4.32;3.58;;;18.30;99.90;;;;;;4200979;28;20126;-77
2022/06/04 05:50:19;;;;;;;4.18;3.50;;;18.20;99.90;;;;;;4192825;28;20688;-77
2022/06/04 05:52:21;;;;;;;5.65;3.95;;;18.20;99.90;;;;;;4202421;28;20121;-78
2022/06/04 05:54:23;;;;;;;5.15;3.50;;;18.10;99.90;;;;;;4197124;28;20037;-79
2022/06/04 05:56:27;;;;;;;3.97;3.47;;;18.10;99.90;;;;;;4201025;28;20213;-78
2022/06/04 05:58:29;;;;;;;4.30;4.00;;;18.10;99.90;;;;;;4188758;28;20063;-78
2022/06/04 06:00:31;;;;;;;4.68;3.72;;;18.00;99.90;;;;;;4198100;28;20063;-78
2022/06/04 06:02:33;;;;;;;7.47;5.40;;;17.90;99.90;;;;;;4205633;28;20164;-78
2022/06/04 06:04:35;;;;;;;5.95;4.50;;;17.90;99.90;;;;;;4201442;28;20071;-79
2022/06/04 06:06:43;;;;;;;5.28;4.88;;;17.80;99.90;;;;;;4216508;28;20088;-79
2022/06/04 06:08:45;;;;;;;4.32;3.95;;;17.70;99.90;;;;;;4203482;28;20080;-78
2022/06/04 06:10:47;;;;;;;4.60;4.28;;;17.70;99.90;;;;;;4207905;28;20160;-78
2022/06/04 06:12:49;;;;;;;6.22;4.72;;;17.60;99.90;;;;;;4203669;28;20057;-79
2022/06/04 06:14:51;;;;;;;6.45;5.68;;;17.50;99.90;;;;;;4197012;28;20061;-80
2022/06/04 06:16:52;;;;;;;6.57;5.57;;;17.40;99.90;;;;;;4198804;28;20058;-79
2022/06/04 06:18:55;;;;;;;6.70;5.75;;;17.40;99.90;;;;;;4192780;28;20056;-77
2022/06/04 06:20:56;;;;;;;9.52;5.47;;;17.30;99.90;;;;;;4201033;28;20061;-78
2022/06/04 06:22:58;;;;;;;10.75;6.03;;;17.20;99.90;;;;;;4205155;28;20856;-78
2022/06/04 06:25:04;;;;;;;5.97;5.20;;;17.20;99.90;;;;;;4206996;28;20067;-78
2022/06/04 06:27:08;;;;;;;7.75;5.78;;;17.20;99.90;;;;;;4204960;28;20076;-78
2022/06/04 06:29:11;;;;;;;6.53;5.95;;;17.20;99.90;;;;;;4199372;28;20041;-77
2022/06/04 06:31:16;;;;;;;5.43;5.00;;;17.20;99.90;;;;;;4200915;28;20064;-77
2022/06/04 06:33:18;;;;;;;7.47;5.75;;;17.30;99.90;;;;;;4201308;28;20095;-77
2022/06/04 06:35:19;;;;;;;7.63;6.22;;;17.30;99.90;;;;;;4189190;28;21301;-77
2022/06/04 06:37:21;;;;;;;6.15;5.00;;;17.40;99.90;;;;;;4198281;28;20995;-76
2022/06/04 06:39:23;;;;;;;6.97;5.72;;;17.40;99.90;;;;;;4198267;28;20045;-76
2022/06/04 06:41:25;;;;;;;5.50;5.10;;;17.50;99.90;;;;;;4186673;28;20063;-76
2022/06/04 06:43:49;;;;;;;7.40;5.70;;;17.60;99.90;;;;;;4189786;28;20097;-76
2022/06/04 06:46:11;;;;;;;7.30;4.75;;;17.60;99.90;;;;;;4192960;28;20061;-76
2022/06/04 06:48:14;;;;;;;6.10;5.50;;;17.60;99.90;;;;;;4194002;28;20103;-76
2022/06/04 06:50:16;;;;;;;7.05;6.40;;;17.70;99.90;;;;;;4198537;28;20060;-76
2022/06/04 06:52:19;;;;;;;6.30;5.80;;;17.70;99.90;;;;;;4196632;28;20878;-76
2022/06/04 06:54:24;;;;;;;5.93;5.43;;;17.70;99.90;;;;;;4190205;28;20057;-76
2022/06/04 06:56:32;;;;;;;6.55;6.05;;;17.80;99.90;;;;;;4195665;28;20067;-76
2022/06/04 06:58:34;;;;;;;7.10;6.47;;;17.70;99.90;;;;;;4194544;28;20067;-76
2022/06/04 07:00:35;;;;;;;7.40;6.40;;;17.60;99.90;;;;;;4191979;28;20151;-76
2022/06/04 07:02:37;;;;;;;7.10;6.40;;;17.60;99.90;;;;;;4190317;28;20061;-76
2022/06/04 07:04:39;;;;;;;7.82;7.10;;;17.60;99.90;;;;;;4198386;28;20884;-76
2022/06/04 07:06:44;;;;;;;9.23;6.95;;;17.70;99.90;;;;;;4215017;28;20930;-76
2022/06/04 07:08:46;;;;;;;6.80;6.25;;;17.70;99.90;;;;;;4197622;28;20052;-76
2022/06/04 07:10:47;;;;;;;11.43;7.03;;;17.70;99.90;;;;;;4198924;28;20156;-76
2022/06/04 07:12:49;;;;;;;8.40;6.90;;;17.70;99.90;;;;;;4198712;28;20053;-75
2022/06/04 07:14:57;;;;;;;6.88;6.22;;;17.60;99.90;;;;;;4186500;28;20064;-77
2022/06/04 07:17:00;;;;;;;8.73;7.82;;;17.60;99.90;;;;;;4186620;28;20050;-76
2022/06/04 07:19:02;;;;;;;9.57;6.88;;;17.60;99.90;;;;;;4199105;28;20037;-76
2022/06/04 07:21:07;;;;;;;9.13;7.53;;;17.60;99.90;;;;;;4201433;28;20053;-76
2022/06/04 07:23:10;;;;;;;9.68;8.80;;;17.70;99.90;;;;;;4195000;28;20057;-77
2022/06/04 07:25:11;;;;;;;8.95;8.25;;;17.80;99.90;;;;;;4198886;28;20063;-76
2022/06/04 07:27:13;;;;;;;7.22;6.63;;;18.00;99.90;;;;;;4198948;28;20079;-76
2022/06/04 07:29:15;;;;;;;11.23;8.35;;;18.30;99.90;;;;;;4196091;28;20063;-76
2022/06/04 07:31:18;;;;;;;8.68;7.53;;;18.60;99.90;;;;;;4193529;28;20807;-77
2022/06/04 07:33:20;;;;;;;6.63;6.03;;;18.90;99.90;;;;;;4193013;28;20781;-77
2022/06/04 07:35:21;;;;;;;7.38;6.70;;;19.00;99.90;;;;;;4192822;28;20057;-77
2022/06/04 07:37:23;;;;;;;6.00;5.50;;;19.00;99.90;;;;;;4190169;28;20089;-77
2022/06/04 07:39:25;;;;;;;7.28;5.43;;;19.10;99.90;;;;;;4199216;28;20084;-76
2022/06/04 07:41:40;;;;;;;5.93;4.95;;;19.20;99.90;;;;;;4214980;28;20669;-77
2022/06/04 07:43:42;;;;;;;5.32;4.85;;;19.30;99.90;;;;;;4199616;28;20063;-77
2022/06/04 07:45:43;;;;;;;5.28;4.60;;;19.30;99.90;;;;;;4188947;28;20051;-77
2022/06/04 07:47:45;;;;;;;5.15;4.38;;;19.30;99.90;;;;;;4195552;28;20057;-77
2022/06/04 07:49:47;;;;;;;5.50;4.93;;;19.30;99.90;;;;;;4195052;28;20059;-77
2022/06/04 07:51:50;;;;;;;7.47;4.78;;;19.30;99.90;;;;;;4200431;28;20091;-76
2022/06/04 07:53:52;;;;;;;4.68;4.00;;;19.30;99.90;;;;;;4200392;28;20894;-76
2022/06/04 07:55:53;;;;;;;5.65;5.05;;;19.30;99.90;;;;;;4197417;28;20057;-77
2022/06/04 07:57:59;;;;;;;5.57;5.10;;;19.30;99.90;;;;;;4205850;28;20116;-76
2022/06/04 08:00:01;;;;;;;4.97;4.57;;;19.40;99.90;;;;;;4205495;28;20067;-76
2022/06/04 08:02:03;;;;;;;5.13;4.72;;;19.30;99.90;;;;;;4202600;28;20155;-77
2022/06/04 08:04:05;;;;;;;4.60;4.30;;;19.30;99.90;;;;;;4201497;28;20052;-76
2022/06/04 08:06:07;;;;;;;5.55;5.05;;;19.40;99.90;;;;;;4198045;28;20037;-78
2022/06/04 08:08:09;;;;;;;6.80;4.70;;;19.60;99.90;;;;;;4198831;28;20159;-77
2022/06/04 08:10:12;;;;;;;4.90;4.45;;;19.70;99.90;;;;;;4198651;28;20064;-76
2022/06/04 08:12:15;;;;;;;5.70;5.30;;;19.80;99.90;;;;;;4197245;28;20057;-77
2022/06/04 08:14:24;;;;;;;5.15;4.55;;;20.00;99.90;;;;;;4215714;28;20890;-77
2022/06/04 08:16:26;;;;;;;5.25;4.85;;;20.10;99.90;;;;;;4206678;28;20068;-77
2022/06/04 08:18:28;;;;;;;5.30;4.82;;;20.30;99.90;;;;;;4201109;28;20803;-76
2022/06/04 08:20:30;;;;;;;5.43;4.43;;;20.30;99.90;;;;;;4199285;28;20163;-77
2022/06/04 08:22:32;;;;;;;5.03;4.53;;;20.30;99.90;;;;;;4201541;28;20219;-76
2022/06/04 08:24:33;;;;;;;4.90;4.55;;;20.30;99.90;;;;;;4203556;28;20971;-76
2022/06/04 08:26:36;;;;;;;4.57;4.10;;;20.50;99.90;;;;;;4200130;28;20150;-77
2022/06/04 08:28:37;;;;;;;3.88;3.67;;;20.90;99.90;;;;;;4200087;28;20060;-75
2022/06/04 08:30:39;;;;;;;3.95;3.50;;;21.20;99.90;;;;;;4200668;28;20150;-77
2022/06/04 08:32:41;;;;;;;3.85;3.55;;;21.50;99.90;;;;;;4198310;28;20866;-78
2022/06/04 08:34:43;;;;;;;4.63;4.22;;;21.60;99.90;;;;;;4199588;28;20057;-77
2022/06/04 08:36:44;;;;;;;5.05;4.55;;;21.70;99.90;;;;;;4221942;28;20044;-76
2022/06/04 08:38:46;;;;;;;4.75;4.35;;;21.90;99.90;;;;;;4186159;28;20643;-76
2022/06/04 08:40:56;;;;;;;5.32;4.82;;;21.90;99.90;;;;;;4198335;28;20855;-75
2022/06/04 08:43:03;;;;;;;4.75;4.35;;;21.70;99.90;;;;;;4200297;28;20056;-77
2022/06/04 08:45:09;;;;;;;3.80;3.50;;;21.40;99.90;;;;;;4194535;28;20131;-79
2022/06/04 08:47:26;;;;;;;4.35;3.95;;;21.30;99.90;;;;;;4197030;28;20114;-79
2022/06/04 08:50:01;;;;;;;3.90;3.60;;;21.30;99.90;;;;;;4216490;28;20064;-77
2022/06/04 08:52:33;;;;;;;3.65;3.45;;;21.40;99.90;;;;;;4214810;28;20033;-78
2022/06/04 08:59:28;;;;;;;5.28;4.80;;;21.30;99.90;;;;;;4192527;28;20155;-77
2022/06/04 09:01:36;;;;;;;6.60;4.45;;;21.20;99.90;;;;;;4196958;28;20100;-78
2022/06/04 09:04:01;;;;;;;4.38;3.90;;;21.20;99.90;;;;;;4202470;28;20064;-78
2022/06/04 09:06:15;;;;;;;5.20;4.28;;;21.30;99.90;;;;;;4202950;28;20091;-78
2022/06/04 09:08:40;;;;;;;4.55;4.15;;;21.50;99.90;;;;;;4199304;28;20915;-78
2022/06/04 09:10:55;;;;;;;3.88;3.65;;;21.70;99.90;;;;;;4203331;28;20072;-79
2022/06/04 09:13:04;;;;;;;4.45;3.08;;;21.70;99.90;;;;;;4204283;28;20088;-78
2022/06/04 09:15:22;;;;;;;3.67;3.38;;;22.00;98.70;;;;;;4213238;28;20890;-80
2022/06/04 09:17:41;;;;;;;5.65;3.60;;;22.10;96.10;;;;;;4189744;28;20062;-78
2022/06/04 09:19:50;;;;;;;2.92;2.60;;;22.10;95.50;;;;;;4213111;28;20065;-79
2022/06/04 09:21:53;;;;;;;2.67;2.47;;;22.10;94.30;;;;;;4206572;28;20053;-79
2022/06/04 09:23:55;;;;;;;4.82;3.00;;;22.20;95.60;;;;;;4195148;28;20061;-79
2022/06/04 09:26:03;;;;;;;3.55;1.98;;;22.10;94.50;;;;;;4199676;28;20162;-79
2022/06/04 09:28:17;;;;;;;2.35;2.15;;;21.90;94.80;;;;;;4198245;28;20049;-78
2022/06/04 09:30:39;;;;;;;2.47;2.28;;;21.70;96.00;;;;;;4197007;28;20056;-78
2022/06/04 09:33:05;;;;;;;3.70;3.10;;;21.70;97.00;;;;;;4194630;28;20087;-78
2022/06/04 09:35:08;;;;;;;2.95;2.45;;;21.90;96.40;;;;;;4172235;28;20045;-79
2022/06/04 09:37:10;;;;;;;5.18;3.30;;;22.20;95.50;;;;;;4212724;28;20044;-79
2022/06/04 09:39:25;;;;;;;4.35;2.80;;;22.30;94.80;;;;;;4201403;28;20140;-78
2022/06/04 09:41:30;;;;;;;2.63;2.40;;;22.50;95.10;;;;;;4200016;28;20065;-79
2022/06/04 09:43:33;;;;;;;3.72;2.30;;;22.60;94.20;;;;;;4215434;28;20060;-79
2022/06/04 09:45:39;;;;;;;2.47;2.30;;;22.80;94.50;;;;;;4219215;28;20783;-79
2022/06/04 09:47:43;;;;;;;5.70;2.78;;;22.80;92.60;;;;;;4203103;28;20056;-78
2022/06/04 09:49:57;;;;;;;2.63;2.45;;;22.70;92.30;;;;;;4203332;28;20044;-78
2022/06/04 09:52:10;;;;;;;3.83;2.35;;;22.60;92.80;;;;;;4203917;28;20108;-79
2022/06/04 09:54:33;;;;;;;5.18;2.53;;;22.50;93.20;;;;;;4203057;28;20053;-78
2022/06/04 09:56:41;;;;;;;2.78;2.58;;;22.50;94.10;;;;;;4204682;28;20092;-78
2022/06/04 09:58:47;;;;;;;4.15;3.20;;;22.40;94.60;;;;;;4201028;28;20119;-78
2022/06/04 10:01:20;;;;;;;3.53;3.28;;;22.20;95.50;;;;;;4187806;28;20261;-78
2022/06/04 10:03:22;;;;;;;3.58;3.10;;;22.10;96.20;;;;;;4194581;28;20783;-78
2022/06/04 10:05:28;;;;;;;3.92;3.63;;;22.30;95.60;;;;;;4194002;28;20124;-78
2022/06/04 10:07:33;;;;;;;4.55;4.15;;;22.50;94.80;;;;;;4188718;28;20149;-78
2022/06/04 10:09:56;;;;;;;4.70;4.30;;;22.40;93.80;;;;;;4197963;28;20061;-77
2022/06/04 10:12:03;;;;;;;4.88;4.57;;;22.00;95.30;;;;;;4207293;28;20045;-78
2022/06/04 10:14:05;;;;;;;5.72;5.18;;;21.90;96.20;;;;;;4200334;28;20061;-79
2022/06/04 10:16:23;;;;;;;5.38;4.63;;;21.80;96.30;;;;;;4208839;28;20095;-78
2022/06/04 10:18:29;;;;;;;5.43;4.75;;;21.60;96.90;;;;;;4201470;28;20049;-78
2022/06/04 10:20:32;;;;;;;5.45;5.05;;;21.50;97.80;;;;;;4204526;28;20097;-82
2022/06/04 10:22:34;;;;;;;5.30;4.80;;;21.40;97.70;;;;;;4203520;28;20064;-79
2022/06/04 10:24:47;;;;;;;5.70;4.90;;;21.50;98.30;;;;;;4202487;28;20061;-78
2022/06/04 10:26:58;;;;;;;5.50;4.93;;;21.60;99.30;;;;;;4191268;28;20100;-78
2022/06/04 10:29:13;;;;;;;6.15;5.63;;;21.40;99.90;;;;;;4203294;28;20138;-78
2022/06/04 10:31:24;;;;;;;5.15;4.85;;;21.10;99.90;;;;;;4202245;28;20867;-79
2022/06/04 10:33:52;;;;;;;6.70;5.82;;;20.70;99.90;;;;;;4195368;28;20045;-78
2022/06/04 10:36:04;;;;;;;9.00;8.30;;;20.70;99.90;;;;;;4207744;28;20068;-79
2022/06/04 10:38:34;;;;;;;8.38;7.32;;;20.60;99.90;;;;;;4200193;28;20089;-78
2022/06/04 10:40:41;;;;;;;8.38;7.72;;;20.70;99.90;;;;;;4202569;28;20033;-79
2022/06/04 10:43:30;;;;;;;9.27;8.48;;;20.80;99.90;;;;;;4202662;28;20056;-78
2022/06/04 10:45:55;;;;;;;10.18;9.27;;;21.00;99.90;;;;;;4199642;28;20099;-79
2022/06/04 10:48:08;;;;;;;9.90;8.90;;;21.20;99.90;;;;;;4200367;28;20123;-78
2022/06/04 10:50:16;;;;;;;8.20;7.50;;;21.10;99.90;;;;;;4201348;28;20051;-78
2022/06/04 10:52:38;;;;;;;7.93;7.22;;;21.10;99.90;;;;;;4201918;28;20056;-78
2022/06/04 10:54:50;;;;;;;7.05;6.38;;;21.10;99.90;;;;;;4200796;28;20057;-78
2022/06/04 10:56:58;;;;;;;9.32;8.38;;;21.00;99.90;;;;;;4200787;28;20057;-78
2022/06/04 10:59:13;;;;;;;11.43;8.80;;;20.80;99.90;;;;;;4202921;28;20078;-78
2022/06/04 11:02:01;;;;;;;9.25;8.32;;;20.70;99.90;;;;;;4214549;28;20799;-78
2022/06/04 11:04:17;;;;;;;8.50;7.78;;;20.60;99.90;;;;;;4183628;28;20041;-78
2022/06/04 11:06:33;;;;;;;10.27;9.38;;;20.70;99.90;;;;;;4198487;28;20050;-80
2022/06/04 11:08:47;;;;;;;10.32;9.50;;;20.60;99.90;;;;;;4207858;28;20076;-79
2022/06/04 11:11:15;;;;;;;9.68;8.88;;;20.50;99.90;;;;;;4203165;28;20057;-78
2022/06/04 11:13:32;;;;;;;9.70;8.90;;;20.40;99.90;;;;;;4203349;28;20123;-78
2022/06/04 11:15:51;;;;;;;10.32;9.32;;;20.30;99.90;;;;;;4202700;28;20097;-78